createdAt,value
2017-02-14T00:00:18.410Z,0
2017-02-14T00:01:24.501Z,0
2017-02-14T00:02:29.632Z,0
2017-02-14T00:03:34.745Z,0
2017-02-14T00:04:38.880Z,0
2017-02-14T00:05:44.014Z,0
2017-02-14T00:06:48.219Z,0
2017-02-14T00:07:53.378Z,0
2017-02-14T00:08:59.456Z,0
2017-02-14T00:10:05.548Z,0
2017-02-14T00:11:09.729Z,0
2017-02-14T00:12:15.827Z,0
2017-02-14T00:13:21.923Z,0
2017-02-14T00:14:27.039Z,0
2017-02-14T00:15:33.128Z,0
2017-02-14T00:16:39.221Z,0
2017-02-14T00:17:45.308Z,0
2017-02-14T00:18:51.397Z,0
2017-02-14T00:19:57.498Z,0
2017-02-14T00:21:01.648Z,0
2017-02-14T00:22:07.745Z,0
2017-02-14T00:23:12.867Z,0
2017-02-14T00:24:17.022Z,0
2017-02-14T00:25:23.114Z,0
2017-02-14T00:26:29.197Z,0
2017-02-14T00:27:34.352Z,0
2017-02-14T00:28:37.510Z,0
2017-02-14T00:29:42.596Z,0
2017-02-14T00:30:48.688Z,0
2017-02-14T00:31:53.839Z,0
2017-02-14T00:32:59.903Z,0
2017-02-14T00:34:05.019Z,0
2017-02-14T00:35:10.136Z,0
2017-02-14T00:36:16.240Z,0
2017-02-14T00:37:21.414Z,0
2017-02-14T00:38:27.502Z,0
2017-02-14T00:39:31.663Z,0
2017-02-14T00:40:36.791Z,0
2017-02-14T00:41:42.878Z,0
2017-02-14T00:42:48.966Z,0
2017-02-14T00:43:55.072Z,0
2017-02-14T00:45:00.197Z,0
2017-02-14T00:46:05.321Z,0
2017-02-14T00:47:11.424Z,0
2017-02-14T00:48:13.634Z,0
2017-02-14T00:49:19.786Z,0
2017-02-14T00:50:25.821Z,0
2017-02-14T00:51:31.045Z,0
2017-02-14T00:52:36.148Z,0
2017-02-14T00:53:39.309Z,0
2017-02-14T00:54:44.398Z,0
2017-02-14T00:55:47.548Z,0
2017-02-14T00:56:52.684Z,0
2017-02-14T00:57:58.776Z,0
2017-02-14T00:59:04.863Z,0
2017-02-14T01:00:10.016Z,0
2017-02-14T01:01:16.111Z,0
2017-02-14T01:02:22.209Z,0
2017-02-14T01:03:27.319Z,0
2017-02-14T01:04:32.422Z,0
2017-02-14T01:05:36.584Z,0
2017-02-14T01:06:42.678Z,0
2017-02-14T01:07:47.801Z,0
2017-02-14T01:08:52.918Z,0
2017-02-14T01:09:59.012Z,0
2017-02-14T01:11:04.127Z,0
2017-02-14T01:12:09.244Z,0
2017-02-14T01:13:15.328Z,0
2017-02-14T01:14:19.468Z,0
2017-02-14T01:15:25.563Z,0
2017-02-14T01:16:30.754Z,0
2017-02-14T01:17:33.939Z,0
2017-02-14T01:18:39.050Z,0
2017-02-14T01:19:45.149Z,0
2017-02-14T01:20:50.315Z,0
2017-02-14T01:21:56.390Z,0
2017-02-14T01:22:59.579Z,0
2017-02-14T01:24:05.656Z,0
2017-02-14T01:25:11.747Z,0
2017-02-14T01:26:16.931Z,0
2017-02-14T01:27:20.087Z,0
2017-02-14T01:28:25.184Z,0
2017-02-14T01:29:30.300Z,0
2017-02-14T01:30:36.391Z,0
2017-02-14T01:31:41.511Z,0
2017-02-14T01:32:45.677Z,0
2017-02-14T01:33:50.804Z,0
2017-02-14T01:34:56.896Z,0
2017-02-14T01:36:02.988Z,0
2017-02-14T01:37:09.069Z,0
2017-02-14T01:38:14.193Z,0
2017-02-14T01:39:19.316Z,0
2017-02-14T01:40:25.412Z,0
2017-02-14T01:41:30.519Z,0
2017-02-14T01:42:35.645Z,0
2017-02-14T01:43:41.727Z,0
2017-02-14T01:44:46.918Z,0
2017-02-14T01:45:53.029Z,0
2017-02-14T01:46:57.183Z,0
2017-02-14T01:48:03.258Z,0
2017-02-14T01:49:08.401Z,0
2017-02-14T01:50:13.506Z,0
2017-02-14T01:51:18.632Z,0
2017-02-14T01:52:24.723Z,0
2017-02-14T01:53:30.818Z,0
2017-02-14T01:54:36.905Z,0
2017-02-14T01:55:42.026Z,0
2017-02-14T01:56:47.191Z,0
2017-02-14T01:57:52.327Z,0
2017-02-14T01:58:58.433Z,0
2017-02-14T02:00:03.537Z,0
2017-02-14T02:01:07.702Z,0
2017-02-14T02:02:13.788Z,0
2017-02-14T02:03:18.882Z,0
2017-02-14T02:04:24.007Z,0
2017-02-14T02:05:29.114Z,0
2017-02-14T02:06:34.231Z,0
2017-02-14T02:07:39.419Z,0
2017-02-14T02:08:45.511Z,0
2017-02-14T02:09:49.661Z,0
2017-02-14T02:10:54.791Z,0
2017-02-14T02:12:00.880Z,0
2017-02-14T02:13:06.966Z,0
2017-02-14T02:14:13.067Z,0
2017-02-14T02:15:18.192Z,0
2017-02-14T02:16:23.318Z,0
2017-02-14T02:17:26.506Z,0
2017-02-14T02:18:30.657Z,0
2017-02-14T02:19:36.754Z,0
2017-02-14T02:20:42.839Z,0
2017-02-14T02:21:47.965Z,0
2017-02-14T02:22:54.052Z,0
2017-02-14T02:24:00.139Z,0
2017-02-14T02:25:05.307Z,0
2017-02-14T02:26:11.393Z,0
2017-02-14T02:27:16.501Z,0
2017-02-14T02:28:22.604Z,0
2017-02-14T02:29:27.700Z,0
2017-02-14T02:30:33.802Z,0
2017-02-14T02:31:38.958Z,0
2017-02-14T02:32:44.084Z,0
2017-02-14T02:33:50.221Z,0
2017-02-14T02:34:56.309Z,0
2017-02-14T02:36:01.431Z,0
2017-02-14T02:37:06.548Z,0
2017-02-14T02:38:11.677Z,0
2017-02-14T02:39:14.842Z,0
2017-02-14T02:40:19.962Z,0
2017-02-14T02:41:26.047Z,0
2017-02-14T02:42:31.172Z,0
2017-02-14T02:43:37.264Z,0
2017-02-14T02:44:43.341Z,0
2017-02-14T02:45:49.432Z,0
2017-02-14T02:46:53.588Z,0
2017-02-14T02:47:57.718Z,0
2017-02-14T02:49:01.875Z,0
2017-02-14T02:50:06.010Z,0
2017-02-14T02:51:11.181Z,0
2017-02-14T02:52:17.257Z,0
2017-02-14T02:53:22.376Z,0
2017-02-14T02:54:27.495Z,0
2017-02-14T02:55:30.687Z,0
2017-02-14T02:56:35.815Z,0
2017-02-14T02:57:41.909Z,0
2017-02-14T02:58:48.018Z,0
2017-02-14T02:59:54.101Z,0
2017-02-14T03:01:00.172Z,0
2017-02-14T03:02:06.261Z,0
2017-02-14T03:03:10.387Z,0
2017-02-14T03:04:16.494Z,0
2017-02-14T03:05:20.645Z,0
2017-02-14T03:06:25.745Z,0
2017-02-14T03:07:29.899Z,0
2017-02-14T03:08:35.082Z,0
2017-02-14T03:09:41.170Z,0
2017-02-14T03:10:45.301Z,0
2017-02-14T03:11:49.458Z,0
2017-02-14T03:12:55.558Z,0
2017-02-14T03:14:01.649Z,0
2017-02-14T03:15:07.735Z,0
2017-02-14T03:16:12.858Z,0
2017-02-14T03:17:18.944Z,0
2017-02-14T03:18:24.084Z,0
2017-02-14T03:19:29.229Z,0
2017-02-14T03:20:35.306Z,0
2017-02-14T03:21:40.424Z,0
2017-02-14T03:22:46.512Z,0
2017-02-14T03:23:52.600Z,0
2017-02-14T03:24:58.691Z,0
2017-02-14T03:26:03.825Z,0
2017-02-14T03:27:09.007Z,0
2017-02-14T03:28:15.104Z,0
2017-02-14T03:29:20.230Z,0
2017-02-14T03:30:26.322Z,0
2017-02-14T03:31:31.423Z,0
2017-02-14T03:32:37.522Z,0
2017-02-14T03:33:42.649Z,0
2017-02-14T03:34:48.760Z,0
2017-02-14T03:35:52.982Z,0
2017-02-14T03:36:59.073Z,0
2017-02-14T03:38:05.223Z,0
2017-02-14T03:39:10.348Z,0
2017-02-14T03:40:15.630Z,0
2017-02-14T03:41:20.731Z,0
2017-02-14T03:42:24.859Z,0
2017-02-14T03:43:29.051Z,0
2017-02-14T03:44:33.204Z,0
2017-02-14T03:45:39.356Z,0
2017-02-14T03:46:43.500Z,0
2017-02-14T03:47:48.603Z,0
2017-02-14T03:48:54.692Z,0
2017-02-14T03:49:59.807Z,0
2017-02-14T03:51:05.900Z,0
2017-02-14T03:52:11.024Z,0
2017-02-14T03:53:17.110Z,0
2017-02-14T03:54:22.224Z,0
2017-02-14T03:55:28.325Z,0
2017-02-14T03:56:33.451Z,0
2017-02-14T03:57:38.573Z,0
2017-02-14T03:58:43.700Z,0
2017-02-14T03:59:47.858Z,0
2017-02-14T04:00:53.941Z,0
2017-02-14T04:02:00.082Z,0
2017-02-14T04:03:05.203Z,0
2017-02-14T04:04:11.286Z,0
2017-02-14T04:05:16.415Z,0
2017-02-14T04:06:21.532Z,0
2017-02-14T04:07:27.624Z,0
2017-02-14T04:08:31.753Z,0
2017-02-14T04:09:37.851Z,0
2017-02-14T04:10:43.979Z,0
2017-02-14T04:11:49.095Z,0
2017-02-14T04:12:55.183Z,0
2017-02-14T04:14:01.273Z,0
2017-02-14T04:15:04.439Z,0
2017-02-14T04:16:09.562Z,0
2017-02-14T04:17:14.679Z,0
2017-02-14T04:18:20.763Z,0
2017-02-14T04:19:25.880Z,0
2017-02-14T04:20:31.006Z,0
2017-02-14T04:21:37.093Z,0
2017-02-14T04:22:43.245Z,0
2017-02-14T04:23:47.406Z,0
2017-02-14T04:24:53.495Z,0
2017-02-14T04:25:58.586Z,0
2017-02-14T04:27:03.740Z,0
2017-02-14T04:28:09.862Z,0
2017-02-14T04:29:15.916Z,0
2017-02-14T04:30:22.009Z,0
2017-02-14T04:31:27.108Z,0
2017-02-14T04:32:33.200Z,0
2017-02-14T04:33:38.325Z,0
2017-02-14T04:34:44.423Z,0
2017-02-14T04:35:49.552Z,0
2017-02-14T04:36:55.646Z,0
2017-02-14T04:38:01.735Z,0
2017-02-14T04:39:05.879Z,0
2017-02-14T04:40:11.969Z,0
2017-02-14T04:41:18.070Z,0
2017-02-14T04:42:23.186Z,0
2017-02-14T04:43:28.283Z,0
2017-02-14T04:44:33.398Z,0
2017-02-14T04:45:38.525Z,0
2017-02-14T04:46:44.606Z,0
2017-02-14T04:47:49.712Z,0
2017-02-14T04:48:53.835Z,0
2017-02-14T04:50:00.018Z,0
2017-02-14T04:51:06.105Z,0
2017-02-14T04:52:12.243Z,0
2017-02-14T04:53:16.422Z,0
2017-02-14T04:54:21.549Z,0
2017-02-14T04:55:25.683Z,0
2017-02-14T04:56:31.795Z,0
2017-02-14T04:57:36.908Z,0
2017-02-14T04:58:42.039Z,0
2017-02-14T04:59:47.176Z,0
2017-02-14T05:00:53.255Z,0
2017-02-14T05:01:58.397Z,0
2017-02-14T05:03:04.486Z,0
2017-02-14T05:04:09.616Z,0
2017-02-14T05:05:14.729Z,0
2017-02-14T05:06:20.820Z,0
2017-02-14T05:07:25.961Z,0
2017-02-14T05:08:32.046Z,0
2017-02-14T05:09:37.189Z,0
2017-02-14T05:10:41.326Z,0
2017-02-14T05:11:47.417Z,0
2017-02-14T05:12:51.570Z,0
2017-02-14T05:13:57.667Z,0
2017-02-14T05:15:03.751Z,0
2017-02-14T05:16:08.872Z,0
2017-02-14T05:17:14.001Z,0
2017-02-14T05:18:19.123Z,0
2017-02-14T05:19:24.264Z,0
2017-02-14T05:20:30.333Z,0
2017-02-14T05:21:36.417Z,0
2017-02-14T05:22:41.510Z,0
2017-02-14T05:23:46.697Z,0
2017-02-14T05:24:52.793Z,0
2017-02-14T05:25:58.917Z,0
2017-02-14T05:27:05.012Z,0
2017-02-14T05:28:11.102Z,0
2017-02-14T05:29:15.224Z,0
2017-02-14T05:30:21.310Z,0
2017-02-14T05:31:27.401Z,0
2017-02-14T05:33:36.664Z,0
2017-02-14T05:34:41.759Z,0
2017-02-14T05:35:46.847Z,0
2017-02-14T05:36:53.058Z,0
2017-02-14T05:37:59.145Z,0
2017-02-14T05:39:05.232Z,0
2017-02-14T05:40:09.394Z,0
2017-02-14T05:41:15.482Z,0
2017-02-14T05:42:19.645Z,0
2017-02-14T05:43:24.774Z,0
2017-02-14T05:44:28.919Z,0
2017-02-14T05:45:34.038Z,0
2017-02-14T05:46:39.167Z,0
2017-02-14T05:47:44.289Z,0
2017-02-14T05:48:49.421Z,0
2017-02-14T05:49:54.541Z,0
2017-02-14T05:51:00.640Z,0
2017-02-14T05:52:05.766Z,0
2017-02-14T05:53:11.857Z,0
2017-02-14T05:54:17.940Z,0
2017-02-14T05:55:22.107Z,0
2017-02-14T05:56:28.223Z,0
2017-02-14T05:57:34.291Z,0
2017-02-14T05:58:40.391Z,0
2017-02-14T05:59:46.490Z,0
2017-02-14T06:00:52.589Z,0
2017-02-14T06:01:58.682Z,0
2017-02-14T06:03:04.805Z,0
2017-02-14T06:04:10.898Z,0
2017-02-14T06:05:16.991Z,0
2017-02-14T06:06:22.117Z,0
2017-02-14T06:07:27.280Z,0
2017-02-14T06:08:32.410Z,0
2017-02-14T06:09:37.530Z,0
2017-02-14T06:10:42.649Z,0
2017-02-14T06:11:47.766Z,0
2017-02-14T06:12:53.876Z,0
2017-02-14T06:13:58.981Z,0
2017-02-14T06:15:04.109Z,0
2017-02-14T06:16:09.227Z,0
2017-02-14T06:17:15.325Z,0
2017-02-14T06:18:21.428Z,0
2017-02-14T06:19:27.523Z,0
2017-02-14T06:20:32.653Z,0
2017-02-14T06:21:38.752Z,0
2017-02-14T06:22:43.841Z,0
2017-02-14T06:23:49.930Z,0
2017-02-14T06:24:56.022Z,0
2017-02-14T06:26:02.112Z,0
2017-02-14T06:27:08.195Z,0
2017-02-14T06:28:14.286Z,0
2017-02-14T06:29:19.377Z,0
2017-02-14T06:30:24.501Z,0
2017-02-14T06:31:27.693Z,0
2017-02-14T06:32:33.771Z,0
2017-02-14T06:33:38.897Z,5
2017-02-14T06:34:45.008Z,5
2017-02-14T06:35:50.114Z,5
2017-02-14T06:36:56.257Z,5
2017-02-14T06:38:01.361Z,5
2017-02-14T06:39:05.613Z,5
2017-02-14T06:40:11.704Z,10
2017-02-14T06:41:16.828Z,10
2017-02-14T06:42:20.986Z,10
2017-02-14T06:43:26.106Z,10
2017-02-14T06:44:32.207Z,10
2017-02-14T06:45:37.321Z,15
2017-02-14T06:46:43.431Z,15
2017-02-14T06:47:49.523Z,15
2017-02-14T06:48:53.654Z,20
2017-02-14T06:49:59.749Z,20
2017-02-14T06:51:04.870Z,20
2017-02-14T06:52:10.958Z,25
2017-02-14T06:53:17.086Z,25
2017-02-14T06:54:21.241Z,25
2017-02-14T06:55:25.386Z,30
2017-02-14T06:56:30.503Z,30
2017-02-14T06:57:36.617Z,35
2017-02-14T06:58:42.673Z,35
2017-02-14T06:59:48.762Z,40
2017-02-14T07:00:54.853Z,40
2017-02-14T07:02:00.963Z,45
2017-02-14T07:03:06.094Z,45
2017-02-14T07:04:10.267Z,50
2017-02-14T07:05:16.367Z,50
2017-02-14T07:06:22.460Z,50
2017-02-14T07:07:28.556Z,55
2017-02-14T07:08:33.665Z,55
2017-02-14T07:09:39.821Z,60
2017-02-14T07:10:44.924Z,60
2017-02-14T07:11:50.060Z,65
2017-02-14T07:12:55.183Z,65
2017-02-14T07:14:00.299Z,70
2017-02-14T07:15:04.452Z,75
2017-02-14T07:16:10.549Z,75
2017-02-14T07:17:15.680Z,75
2017-02-14T07:18:20.801Z,80
2017-02-14T07:19:25.917Z,80
2017-02-14T07:20:31.003Z,85
2017-02-14T07:21:35.164Z,95
2017-02-14T07:22:41.264Z,105
2017-02-14T07:23:47.351Z,130
2017-02-14T07:24:52.441Z,160
2017-02-14T07:25:58.530Z,185
2017-02-14T07:27:04.638Z,200
2017-02-14T07:28:09.760Z,200
2017-02-14T07:29:15.868Z,210
2017-02-14T07:30:21.937Z,215
2017-02-14T07:31:27.058Z,225
2017-02-14T07:32:31.251Z,230
2017-02-14T07:33:36.377Z,240
2017-02-14T07:34:41.482Z,245
2017-02-14T07:35:47.625Z,250
2017-02-14T07:36:51.775Z,255
2017-02-14T07:37:56.906Z,260
2017-02-14T07:39:01.995Z,270
2017-02-14T07:40:08.106Z,280
2017-02-14T07:41:12.247Z,285
2017-02-14T07:42:17.376Z,290
2017-02-14T07:43:20.571Z,295
2017-02-14T07:44:24.744Z,300
2017-02-14T07:45:30.826Z,305
2017-02-14T07:46:35.951Z,315
2017-02-14T07:47:41.072Z,325
2017-02-14T07:48:46.174Z,330
2017-02-14T07:49:50.309Z,335
2017-02-14T07:50:56.421Z,340
2017-02-14T07:52:01.540Z,345
2017-02-14T07:53:06.675Z,350
2017-02-14T07:54:11.828Z,355
2017-02-14T07:55:16.952Z,365
2017-02-14T07:56:23.049Z,370
2017-02-14T07:57:27.207Z,380
2017-02-14T07:58:32.336Z,375
2017-02-14T07:59:38.424Z,390
2017-02-14T08:00:43.550Z,395
2017-02-14T08:01:49.654Z,400
2017-02-14T08:02:52.838Z,400
2017-02-14T08:03:57.941Z,415
2017-02-14T08:05:04.042Z,415
2017-02-14T08:06:10.166Z,425
2017-02-14T08:07:15.270Z,430
2017-02-14T08:08:20.393Z,440
2017-02-14T08:09:26.501Z,445
2017-02-14T08:10:30.654Z,450
2017-02-14T08:11:35.777Z,455
2017-02-14T08:12:39.920Z,465
2017-02-14T08:13:45.051Z,475
2017-02-14T08:14:51.154Z,480
2017-02-14T08:15:56.283Z,485
2017-02-14T08:17:02.381Z,500
2017-02-14T08:18:07.512Z,505
2017-02-14T08:19:11.697Z,510
2017-02-14T08:20:16.845Z,515
2017-02-14T08:21:21.970Z,530
2017-02-14T08:22:28.185Z,530
2017-02-14T08:23:31.362Z,550
2017-02-14T08:24:34.537Z,570
2017-02-14T08:25:39.665Z,595
2017-02-14T08:26:44.786Z,620
2017-02-14T08:27:49.919Z,625
2017-02-14T08:28:56.017Z,630
2017-02-14T08:29:59.184Z,625
2017-02-14T08:31:05.284Z,625
2017-02-14T08:32:09.423Z,630
2017-02-14T08:33:14.520Z,620
2017-02-14T08:34:17.752Z,620
2017-02-14T08:35:23.852Z,625
2017-02-14T08:36:29.970Z,625
2017-02-14T08:37:36.066Z,625
2017-02-14T08:38:41.363Z,625
2017-02-14T08:39:46.483Z,635
2017-02-14T08:40:51.582Z,635
2017-02-14T08:41:56.711Z,645
2017-02-14T08:43:02.819Z,665
2017-02-14T08:44:08.922Z,690
2017-02-14T08:45:15.028Z,715
2017-02-14T08:46:21.145Z,740
2017-02-14T08:47:25.307Z,770
2017-02-14T08:48:30.448Z,805
2017-02-14T08:49:36.549Z,840
2017-02-14T08:50:42.656Z,875
2017-02-14T08:51:47.845Z,915
2017-02-14T08:52:52.955Z,975
2017-02-14T08:53:59.058Z,1025
2017-02-14T08:55:05.170Z,1065
2017-02-14T08:56:10.272Z,1075
2017-02-14T08:57:16.435Z,1085
2017-02-14T08:58:22.531Z,1100
2017-02-14T08:59:26.671Z,1110
2017-02-14T09:00:32.777Z,1125
2017-02-14T09:01:36.951Z,1110
2017-02-14T09:02:42.087Z,1115
2017-02-14T09:03:48.204Z,1125
2017-02-14T09:04:53.357Z,1130
2017-02-14T09:05:59.465Z,1135
2017-02-14T09:07:03.632Z,1135
2017-02-14T09:08:08.791Z,1140
2017-02-14T09:09:14.889Z,1145
2017-02-14T09:10:19.060Z,1185
2017-02-14T09:11:24.193Z,1180
2017-02-14T09:12:30.292Z,1195
2017-02-14T09:13:34.451Z,1220
2017-02-14T09:14:38.615Z,1220
2017-02-14T09:15:42.778Z,1230
2017-02-14T09:16:46.924Z,1245
2017-02-14T09:17:53.050Z,1265
2017-02-14T09:18:58.285Z,1300
2017-02-14T09:20:00.527Z,1305
2017-02-14T09:21:05.644Z,1315
2017-02-14T09:22:11.754Z,1320
2017-02-14T09:23:16.894Z,1355
2017-02-14T09:24:23.017Z,1395
2017-02-14T09:25:28.164Z,1400
2017-02-14T09:26:33.409Z,1420
2017-02-14T09:27:39.521Z,1425
2017-02-14T09:28:44.683Z,1435
2017-02-14T09:29:48.795Z,1435
2017-02-14T09:30:53.933Z,1435
2017-02-14T09:31:59.065Z,1445
2017-02-14T09:33:05.173Z,1475
2017-02-14T09:34:11.288Z,1480
2017-02-14T09:35:16.450Z,1480
2017-02-14T09:36:22.549Z,1510
2017-02-14T09:37:28.657Z,1510
2017-02-14T09:38:34.832Z,1530
2017-02-14T09:39:39.972Z,1555
2017-02-14T09:40:42.199Z,1545
2017-02-14T09:41:48.352Z,1525
2017-02-14T09:42:54.460Z,1465
2017-02-14T09:43:57.654Z,1470
2017-02-14T09:45:03.784Z,1465
2017-02-14T09:46:09.853Z,1465
2017-02-14T09:47:15.961Z,1470
2017-02-14T09:48:22.069Z,1455
2017-02-14T09:49:27.192Z,1470
2017-02-14T09:50:31.371Z,1500
2017-02-14T09:51:37.490Z,1520
2017-02-14T09:52:43.589Z,1515
2017-02-14T09:53:49.704Z,1530
2017-02-14T09:54:55.840Z,1530
2017-02-14T09:56:01.928Z,1515
2017-02-14T09:57:08.042Z,1550
2017-02-14T09:58:13.181Z,1555
2017-02-14T09:59:19.294Z,1550
2017-02-14T10:00:25.401Z,1560
2017-02-14T10:01:29.572Z,1575
2017-02-14T10:02:35.685Z,1585
2017-02-14T10:03:41.789Z,1565
2017-02-14T10:04:47.891Z,1575
2017-02-14T10:05:53.987Z,1560
2017-02-14T10:06:57.197Z,1580
2017-02-14T10:08:03.348Z,1565
2017-02-14T10:09:09.426Z,1595
2017-02-14T10:10:14.565Z,1635
2017-02-14T10:11:19.693Z,1660
2017-02-14T10:12:23.960Z,1710
2017-02-14T10:13:30.060Z,1745
2017-02-14T10:14:36.171Z,1840
2017-02-14T10:15:41.305Z,1860
2017-02-14T10:16:47.413Z,1935
2017-02-14T10:17:52.561Z,1980
2017-02-14T10:18:58.683Z,2035
2017-02-14T10:20:04.776Z,2090
2017-02-14T10:21:08.930Z,2080
2017-02-14T10:22:14.081Z,2130
2017-02-14T10:23:20.186Z,2110
2017-02-14T10:24:25.322Z,2120
2017-02-14T10:25:31.566Z,2095
2017-02-14T10:26:37.671Z,1885
2017-02-14T10:27:42.810Z,1660
2017-02-14T10:28:48.951Z,1635
2017-02-14T10:29:55.067Z,1635
2017-02-14T10:31:00.208Z,1625
2017-02-14T10:32:06.433Z,1625
2017-02-14T10:33:11.567Z,1660
2017-02-14T10:34:17.672Z,1650
2017-02-14T10:35:22.784Z,1660
2017-02-14T10:36:28.892Z,1615
2017-02-14T10:37:34.026Z,1660
2017-02-14T10:38:38.203Z,1625
2017-02-14T10:39:42.376Z,1655
2017-02-14T10:40:48.478Z,1660
2017-02-14T10:41:53.628Z,1665
2017-02-14T10:42:58.758Z,1685
2017-02-14T10:44:03.929Z,1655
2017-02-14T10:45:08.098Z,1640
2017-02-14T10:46:12.365Z,1665
2017-02-14T10:47:17.473Z,1675
2017-02-14T10:48:22.605Z,1705
2017-02-14T10:49:28.712Z,1635
2017-02-14T10:50:33.850Z,1635
2017-02-14T10:51:39.013Z,1710
2017-02-14T10:52:43.159Z,1630
2017-02-14T10:53:48.354Z,1695
2017-02-14T10:54:53.539Z,1690
2017-02-14T10:55:59.671Z,1785
2017-02-14T10:57:04.809Z,1660
2017-02-14T10:58:09.931Z,1605
2017-02-14T10:59:15.066Z,1605
2017-02-14T11:00:20.208Z,1555
2017-02-14T11:01:26.326Z,1555
2017-02-14T11:02:32.441Z,1580
2017-02-14T11:03:36.615Z,1560
2017-02-14T11:04:41.727Z,1580
2017-02-14T11:05:46.876Z,1600
2017-02-14T11:06:53.047Z,1225
2017-02-14T11:07:58.220Z,460
2017-02-14T11:09:04.327Z,320
2017-02-14T11:10:07.508Z,280
2017-02-14T11:11:13.614Z,255
2017-02-14T11:12:18.738Z,255
2017-02-14T11:13:23.356Z,265
2017-02-14T11:14:29.454Z,280
2017-02-14T11:15:35.563Z,415
2017-02-14T11:16:41.672Z,1200
2017-02-14T11:17:46.815Z,860
2017-02-14T11:18:52.932Z,270
2017-02-14T11:19:57.111Z,270
2017-02-14T11:21:02.258Z,255
2017-02-14T11:22:07.463Z,245
2017-02-14T11:23:11.581Z,245
2017-02-14T11:24:14.759Z,245
2017-02-14T11:25:19.868Z,240
2017-02-14T11:26:23.060Z,240
2017-02-14T11:27:29.156Z,240
2017-02-14T11:28:35.284Z,235
2017-02-14T11:29:41.375Z,235
2017-02-14T11:30:45.554Z,235
2017-02-14T11:31:51.676Z,235
2017-02-14T11:32:55.823Z,235
2017-02-14T11:34:00.945Z,235
2017-02-14T11:35:06.067Z,235
2017-02-14T11:36:10.219Z,235
2017-02-14T11:37:15.356Z,230
2017-02-14T11:38:20.474Z,230
2017-02-14T11:39:25.608Z,230
2017-02-14T11:40:31.723Z,230
2017-02-14T11:41:35.842Z,230
2017-02-14T11:42:41.943Z,225
2017-02-14T11:43:48.042Z,225
2017-02-14T11:44:54.137Z,225
2017-02-14T11:45:58.305Z,225
2017-02-14T11:47:02.481Z,220
2017-02-14T11:48:06.728Z,220
2017-02-14T11:49:12.827Z,220
2017-02-14T11:50:18.938Z,220
2017-02-14T11:51:25.043Z,220
2017-02-14T11:52:30.165Z,220
2017-02-14T11:53:36.288Z,220
2017-02-14T11:54:41.402Z,215
2017-02-14T11:55:47.514Z,215
2017-02-14T11:56:52.653Z,215
2017-02-14T11:57:56.790Z,215
2017-02-14T11:59:02.915Z,215
2017-02-14T12:00:08.985Z,215
2017-02-14T12:01:14.115Z,215
2017-02-14T12:02:20.234Z,210
2017-02-14T12:03:26.324Z,210
2017-02-14T12:04:30.452Z,210
2017-02-14T12:05:36.576Z,210
2017-02-14T12:06:42.656Z,210
2017-02-14T12:07:46.793Z,210
2017-02-14T12:08:52.892Z,210
2017-02-14T12:09:58.027Z,210
2017-02-14T12:11:03.160Z,210
2017-02-14T12:12:09.253Z,205
2017-02-14T12:13:14.347Z,205
2017-02-14T12:14:18.485Z,205
2017-02-14T12:15:23.664Z,205
2017-02-14T12:16:29.769Z,205
2017-02-14T12:17:35.861Z,205
2017-02-14T12:18:41.960Z,205
2017-02-14T12:19:48.063Z,205
2017-02-14T12:20:54.153Z,200
2017-02-14T12:21:59.279Z,200
2017-02-14T12:23:04.417Z,200
2017-02-14T12:24:09.556Z,200
2017-02-14T12:25:14.659Z,200
2017-02-14T12:26:20.758Z,200
2017-02-14T12:27:26.878Z,200
2017-02-14T12:28:33.066Z,200
2017-02-14T12:29:37.236Z,195
2017-02-14T12:30:42.405Z,195
2017-02-14T12:31:47.533Z,195
2017-02-14T12:32:52.681Z,195
2017-02-14T12:33:57.767Z,195
2017-02-14T12:35:02.901Z,195
2017-02-14T12:36:08.997Z,195
2017-02-14T12:37:14.125Z,195
2017-02-14T12:38:20.235Z,195
2017-02-14T12:39:25.364Z,195
2017-02-14T12:40:30.505Z,195
2017-02-14T12:41:36.601Z,190
2017-02-14T12:42:41.714Z,195
2017-02-14T12:43:46.821Z,190
2017-02-14T12:44:51.948Z,190
2017-02-14T12:45:57.048Z,190
2017-02-14T12:47:01.213Z,190
2017-02-14T12:48:06.327Z,190
2017-02-14T12:49:11.429Z,190
2017-02-14T12:50:16.538Z,190
2017-02-14T12:51:21.669Z,190
2017-02-14T12:52:27.799Z,185
2017-02-14T12:53:31.951Z,185
2017-02-14T12:54:38.055Z,185
2017-02-14T12:55:44.152Z,185
2017-02-14T12:56:50.264Z,185
2017-02-14T12:57:55.363Z,180
2017-02-14T12:59:00.515Z,180
2017-02-14T13:00:06.608Z,180
2017-02-14T13:01:11.750Z,180
2017-02-14T13:02:17.857Z,180
2017-02-14T13:03:23.956Z,180
2017-02-14T13:04:28.116Z,180
2017-02-14T13:05:33.256Z,180
2017-02-14T13:06:39.474Z,175
2017-02-14T13:07:45.581Z,175
2017-02-14T13:08:51.679Z,175
2017-02-14T13:09:56.799Z,175
2017-02-14T13:11:02.888Z,175
2017-02-14T13:12:08.979Z,175
2017-02-14T13:13:15.085Z,175
2017-02-14T13:14:20.224Z,175
2017-02-14T13:15:25.347Z,175
2017-02-14T13:16:31.449Z,170
2017-02-14T13:17:35.629Z,170
2017-02-14T13:18:41.799Z,170
2017-02-14T13:19:46.940Z,170
2017-02-14T13:20:52.049Z,170
2017-02-14T13:21:56.217Z,170
2017-02-14T13:23:01.351Z,170
2017-02-14T13:24:07.511Z,165
2017-02-14T13:25:10.701Z,165
2017-02-14T13:26:15.857Z,165
2017-02-14T13:27:21.053Z,160
2017-02-14T13:28:27.147Z,160
2017-02-14T13:29:33.259Z,160
2017-02-14T13:30:38.443Z,160
2017-02-14T13:31:41.627Z,160
2017-02-14T13:32:46.832Z,160
2017-02-14T13:33:51.961Z,160
2017-02-14T13:34:57.104Z,160
2017-02-14T13:36:02.205Z,160
2017-02-14T13:37:06.425Z,160
2017-02-14T13:38:11.574Z,155
2017-02-14T13:39:14.768Z,155
2017-02-14T13:40:19.899Z,155
2017-02-14T13:41:26.006Z,155
2017-02-14T13:42:32.110Z,155
2017-02-14T13:43:37.244Z,155
2017-02-14T13:44:42.382Z,155
2017-02-14T13:45:48.495Z,155
2017-02-14T13:46:54.597Z,155
2017-02-14T13:47:59.796Z,155
2017-02-14T13:49:05.921Z,155
2017-02-14T13:50:10.115Z,155
2017-02-14T13:51:15.238Z,155
2017-02-14T13:52:20.376Z,150
2017-02-14T13:53:24.538Z,150
2017-02-14T13:54:29.675Z,150
2017-02-14T13:55:34.809Z,150
2017-02-14T13:56:40.937Z,150
2017-02-14T13:57:46.117Z,150
2017-02-14T13:58:51.340Z,150
2017-02-14T13:59:55.490Z,150
2017-02-14T14:01:01.584Z,150
2017-02-14T14:02:07.678Z,150
2017-02-14T14:03:12.786Z,150
2017-02-14T14:04:18.903Z,150
2017-02-14T14:05:25.008Z,150
2017-02-14T14:06:31.117Z,145
2017-02-14T14:07:37.216Z,145
2017-02-14T14:08:43.337Z,145
2017-02-14T14:09:49.433Z,145
2017-02-14T14:10:54.564Z,145
2017-02-14T14:11:58.743Z,145
2017-02-14T14:13:04.840Z,145
2017-02-14T14:14:10.939Z,145
2017-02-14T14:15:16.070Z,145
2017-02-14T14:16:20.282Z,145
2017-02-14T14:17:26.381Z,140
2017-02-14T14:18:31.703Z,140
2017-02-14T14:19:36.921Z,140
2017-02-14T14:20:43.008Z,140
2017-02-14T14:21:48.214Z,140
2017-02-14T14:22:54.371Z,140
2017-02-14T14:24:00.410Z,140
2017-02-14T14:25:05.549Z,140
2017-02-14T14:26:11.635Z,140
2017-02-14T14:27:16.762Z,140
2017-02-14T14:28:21.870Z,140
2017-02-14T14:29:27.039Z,140
2017-02-14T14:30:30.229Z,140
2017-02-14T14:31:36.427Z,140
2017-02-14T14:32:41.524Z,140
2017-02-14T14:33:45.695Z,140
2017-02-14T14:34:51.794Z,140
2017-02-14T14:35:57.909Z,140
2017-02-14T14:37:04.011Z,135
2017-02-14T14:38:09.168Z,135
2017-02-14T14:39:15.273Z,135
2017-02-14T14:40:21.400Z,135
2017-02-14T14:41:27.486Z,135
2017-02-14T14:42:33.583Z,135
2017-02-14T14:43:39.686Z,135
2017-02-14T14:44:43.892Z,135
2017-02-14T14:45:49.062Z,130
2017-02-14T14:46:55.291Z,130
2017-02-14T14:48:01.370Z,130
2017-02-14T14:49:06.526Z,130
2017-02-14T14:50:10.716Z,130
2017-02-14T14:51:16.824Z,130
2017-02-14T14:52:22.932Z,130
2017-02-14T14:53:29.053Z,130
2017-02-14T14:54:33.313Z,125
2017-02-14T14:55:39.431Z,125
2017-02-14T14:56:44.593Z,125
2017-02-14T14:57:50.712Z,125
2017-02-14T14:58:56.829Z,125
2017-02-14T15:00:03.067Z,125
2017-02-14T15:01:09.189Z,125
2017-02-14T15:02:15.288Z,120
2017-02-14T15:03:20.453Z,120
2017-02-14T15:04:25.591Z,120
2017-02-14T15:05:31.726Z,120
2017-02-14T15:06:37.832Z,120
2017-02-14T15:07:42.970Z,120
2017-02-14T15:08:49.084Z,120
2017-02-14T15:09:55.200Z,115
2017-02-14T15:11:00.403Z,115
2017-02-14T15:12:05.598Z,115
2017-02-14T15:13:10.669Z,115
2017-02-14T15:14:16.777Z,115
2017-02-14T15:15:22.936Z,115
2017-02-14T15:16:28.110Z,110
2017-02-14T15:17:34.204Z,110
2017-02-14T15:18:38.382Z,110
2017-02-14T15:19:44.494Z,110
2017-02-14T15:20:48.658Z,110
2017-02-14T15:21:53.798Z,110
2017-02-14T15:22:59.909Z,105
2017-02-14T15:24:06.017Z,105
2017-02-14T15:25:12.119Z,105